Time;durP1;ratioP1;P1;durP2;ratioP2;P2;SDS_P1;SDS_P2;PMS_P1;PMS_P2;Temp;Humidity;BMP_temperature;BMP_pressure;BME280_temperature;BME280_humidity;BME280_pressure;Samples;Min_cycle;Max_cycle;Signal;HPM_P1;HPM_P2
2022/06/17 00:00:24;;;;;;;4.00;3.60;;;16.80;99.90;;;;;;4900221;29;20220;-79
2022/06/17 00:02:51;;;;;;;3.07;2.77;;;16.80;99.90;;;;;;4899843;29;20205;-79
2022/06/17 00:05:18;;;;;;;3.30;2.90;;;16.70;99.90;;;;;;4899705;29;20237;-80
2022/06/17 00:07:45;;;;;;;3.70;3.00;;;16.70;99.90;;;;;;4916919;29;20218;-79
2022/06/17 00:10:19;;;;;;;5.37;4.33;;;16.70;99.90;;;;;;4917332;29;20691;-80
2022/06/17 00:12:46;;;;;;;4.23;3.03;;;16.70;99.90;;;;;;4916877;29;20676;-79
2022/06/17 00:15:14;;;;;;;3.33;3.03;;;16.70;99.90;;;;;;4900168;29;20295;-80
2022/06/17 00:17:45;;;;;;;3.50;2.83;;;16.80;99.90;;;;;;4895915;29;20231;-79
2022/06/17 00:20:15;;;;;;;2.90;2.70;;;16.70;99.90;;;;;;4914093;29;20292;-79
2022/06/17 00:22:45;;;;;;;4.77;3.40;;;16.70;99.90;;;;;;4917046;29;20697;-80
2022/06/17 00:25:20;;;;;;;3.67;3.27;;;16.70;99.90;;;;;;4898953;29;20223;-79
2022/06/17 00:27:47;;;;;;;3.80;3.40;;;16.70;99.90;;;;;;4901968;29;20693;-79
2022/06/17 00:30:17;;;;;;;5.23;3.80;;;16.70;99.90;;;;;;4900806;29;20199;-79
2022/06/17 00:32:46;;;;;;;5.63;3.73;;;16.60;99.90;;;;;;4899605;29;20203;-80
2022/06/17 00:35:13;;;;;;;5.00;4.50;;;16.60;99.90;;;;;;4916093;29;20212;-79
2022/06/17 00:37:41;;;;;;;3.23;2.97;;;16.60;99.90;;;;;;4898193;29;20289;-79
2022/06/17 00:40:14;;;;;;;3.60;3.10;;;16.60;99.90;;;;;;4902176;29;20672;-79
2022/06/17 00:42:42;;;;;;;3.23;2.90;;;16.60;99.90;;;;;;4916569;29;20204;-80
2022/06/17 00:45:16;;;;;;;3.83;3.17;;;16.50;99.90;;;;;;4911788;29;20221;-80
2022/06/17 00:47:50;;;;;;;3.87;2.90;;;16.50;99.90;;;;;;4916301;29;20240;-79
2022/06/17 00:50:21;;;;;;;3.63;2.80;;;16.50;99.90;;;;;;4912212;29;20201;-79
2022/06/17 00:52:53;;;;;;;4.20;2.50;;;16.50;99.90;;;;;;4899152;29;20203;-79
2022/06/17 00:55:27;;;;;;;2.80;2.47;;;16.40;99.90;;;;;;4915843;29;20233;-79
2022/06/17 00:57:54;;;;;;;3.30;3.00;;;16.40;99.90;;;;;;4899071;29;20225;-79
2022/06/17 01:00:23;;;;;;;2.93;2.70;;;16.40;99.90;;;;;;4894918;29;20204;-80
2022/06/17 01:02:54;;;;;;;3.80;3.00;;;16.40;99.90;;;;;;4915262;29;20200;-80
2022/06/17 01:05:24;;;;;;;3.90;3.20;;;16.40;99.90;;;;;;4898334;29;20227;-80
2022/06/17 01:07:55;;;;;;;13.67;3.27;;;16.30;99.90;;;;;;4906385;29;20227;-79
2022/06/17 01:10:22;;;;;;;4.47;3.30;;;16.20;99.90;;;;;;4915172;29;20657;-80
2022/06/17 01:12:55;;;;;;;5.23;4.73;;;16.10;99.90;;;;;;4904744;29;20195;-80
2022/06/17 01:15:26;;;;;;;6.33;5.83;;;16.00;99.90;;;;;;4899864;29;20312;-79
2022/06/17 01:17:57;;;;;;;6.23;5.67;;;16.00;99.90;;;;;;4909579;29;20698;-79
2022/06/17 01:20:27;;;;;;;5.53;5.13;;;16.00;99.90;;;;;;4899053;29;20235;-80
2022/06/17 01:22:57;;;;;;;5.87;5.20;;;15.90;99.90;;;;;;4897569;29;20218;-79
2022/06/17 01:25:27;;;;;;;5.63;5.13;;;15.90;99.90;;;;;;4896738;29;20301;-79
2022/06/17 01:27:58;;;;;;;5.60;5.10;;;15.80;99.90;;;;;;4895987;29;20224;-79
2022/06/17 01:30:28;;;;;;;5.73;5.20;;;15.80;99.90;;;;;;4901492;29;20227;-79
2022/06/17 01:32:59;;;;;;;5.90;5.27;;;15.70;99.90;;;;;;4896191;29;20208;-79
2022/06/17 01:35:29;;;;;;;5.73;5.33;;;15.60;99.90;;;;;;4901611;29;20224;-80
2022/06/17 01:37:58;;;;;;;5.77;5.37;;;15.60;99.90;;;;;;4891009;29;20229;-80
2022/06/17 01:40:28;;;;;;;5.50;5.10;;;15.60;99.90;;;;;;4902573;29;20211;-80
2022/06/17 01:42:55;;;;;;;6.20;5.70;;;15.50;99.90;;;;;;4901134;29;20214;-79
2022/06/17 01:45:22;;;;;;;6.17;5.57;;;15.50;99.90;;;;;;4900029;29;20239;-80
2022/06/17 01:51:42;;;;;;;6.37;5.87;;;15.30;99.90;;;;;;4912474;29;20184;-78
2022/06/17 01:54:15;;;;;;;7.10;6.40;;;15.20;99.90;;;;;;4900664;29;20236;-79
2022/06/17 01:56:44;;;;;;;6.63;6.13;;;15.10;99.90;;;;;;4902527;29;20217;-80
2022/06/17 01:59:17;;;;;;;6.90;6.30;;;15.10;99.90;;;;;;4910485;29;20285;-80
2022/06/17 02:01:48;;;;;;;7.43;6.40;;;15.10;99.90;;;;;;4899351;29;20209;-80
2022/06/17 02:04:21;;;;;;;6.70;6.10;;;15.10;99.90;;;;;;4895553;29;20582;-79
2022/06/17 02:06:53;;;;;;;6.27;5.77;;;15.00;99.90;;;;;;4899040;29;20565;-80
2022/06/17 02:09:22;;;;;;;6.60;6.10;;;15.00;99.90;;;;;;4898300;29;20215;-80
2022/06/17 02:11:51;;;;;;;6.70;6.20;;;14.90;99.90;;;;;;4902094;29;20711;-79
2022/06/17 02:14:20;;;;;;;6.90;6.30;;;14.80;99.90;;;;;;4902290;29;20594;-80
2022/06/17 02:16:58;;;;;;;6.70;6.00;;;14.80;99.90;;;;;;4900569;29;20226;-80
2022/06/17 02:19:43;;;;;;;7.30;6.70;;;14.80;99.90;;;;;;4891584;29;20209;-80
2022/06/17 02:22:15;;;;;;;7.03;6.53;;;14.80;99.90;;;;;;4910285;29;20231;-80
2022/06/17 02:24:44;;;;;;;7.30;6.60;;;14.70;99.90;;;;;;4900628;29;20758;-81
2022/06/17 02:27:13;;;;;;;6.53;6.03;;;14.70;99.90;;;;;;4913206;29;20195;-81
2022/06/17 02:29:43;;;;;;;6.43;5.93;;;14.60;99.90;;;;;;4903872;29;20204;-79
2022/06/17 02:32:11;;;;;;;6.50;5.90;;;14.60;99.90;;;;;;4895652;29;20643;-79
2022/06/17 02:34:46;;;;;;;6.67;6.17;;;14.50;99.90;;;;;;4922973;29;20292;-79
2022/06/17 02:37:16;;;;;;;6.80;6.20;;;14.50;99.90;;;;;;4892425;29;20315;-77
2022/06/17 02:39:48;;;;;;;6.77;6.07;;;14.40;99.90;;;;;;4894201;29;20576;-78
2022/06/17 02:42:19;;;;;;;6.93;6.33;;;14.30;99.90;;;;;;4906635;29;20208;-80
2022/06/17 02:44:49;;;;;;;7.10;6.60;;;14.30;99.90;;;;;;4898631;29;20220;-80
2022/06/17 02:47:16;;;;;;;6.77;6.27;;;14.20;99.90;;;;;;4898253;29;20196;-79
2022/06/17 02:49:46;;;;;;;6.83;6.33;;;14.20;99.90;;;;;;4897046;29;20564;-78
2022/06/17 02:52:17;;;;;;;5.90;5.50;;;14.20;99.90;;;;;;4899093;29;20218;-78
2022/06/17 02:54:52;;;;;;;6.20;5.70;;;14.30;99.90;;;;;;4902451;29;20251;-78
2022/06/17 02:57:24;;;;;;;6.70;6.10;;;14.30;99.90;;;;;;4916656;29;20208;-80
2022/06/17 02:59:56;;;;;;;7.00;6.40;;;14.30;99.90;;;;;;4903368;29;20220;-81
2022/06/17 03:02:27;;;;;;;6.93;6.30;;;14.30;99.90;;;;;;4893499;29;20311;-81
2022/06/17 03:05:00;;;;;;;7.20;6.60;;;14.30;99.90;;;;;;4891986;29;20311;-81
2022/06/17 03:07:31;;;;;;;7.10;6.57;;;14.30;99.90;;;;;;4892075;29;20212;-81
2022/06/17 03:10:15;;;;;;;6.97;6.47;;;14.40;99.90;;;;;;4904823;29;20192;-80
2022/06/17 03:12:45;;;;;;;7.10;6.60;;;14.40;99.90;;;;;;4902055;29;20769;-80
2022/06/17 03:15:15;;;;;;;8.07;7.47;;;14.40;99.90;;;;;;4905739;29;20228;-80
2022/06/17 03:17:47;;;;;;;9.50;8.80;;;14.40;99.90;;;;;;4898015;29;20223;-79
2022/06/17 03:20:17;;;;;;;7.13;6.53;;;14.40;99.90;;;;;;4899046;29;20204;-81
2022/06/17 03:22:48;;;;;;;6.90;6.30;;;14.50;99.90;;;;;;4893250;29;20276;-81
2022/06/17 03:25:24;;;;;;;6.83;6.33;;;14.50;99.90;;;;;;4900393;29;20223;-79
2022/06/17 03:27:55;;;;;;;7.60;6.90;;;14.50;99.90;;;;;;4900521;29;20210;-79
2022/06/17 03:30:26;;;;;;;7.33;6.83;;;14.50;99.90;;;;;;4894735;29;20618;-79
2022/06/17 03:33:00;;;;;;;7.70;7.20;;;14.60;99.90;;;;;;4900510;29;20617;-79
2022/06/17 03:35:31;;;;;;;8.30;7.70;;;14.60;99.90;;;;;;4896484;29;20315;-79
2022/06/17 03:38:03;;;;;;;9.33;8.73;;;14.60;99.90;;;;;;4900463;29;20250;-79
2022/06/17 03:40:37;;;;;;;8.90;8.10;;;14.60;99.90;;;;;;4900588;29;20248;-78
2022/06/17 03:43:12;;;;;;;8.07;7.50;;;14.60;99.90;;;;;;4900210;29;20250;-80
2022/06/17 03:45:46;;;;;;;8.20;7.50;;;14.60;99.90;;;;;;4895490;29;20700;-81
2022/06/17 03:48:22;;;;;;;7.70;7.10;;;14.60;99.90;;;;;;4902408;29;20197;-81
2022/06/17 03:50:49;;;;;;;8.10;7.50;;;14.50;99.90;;;;;;4890114;29;20204;-80
2022/06/17 03:53:25;;;;;;;7.07;6.57;;;14.50;99.90;;;;;;4900182;29;20256;-81
2022/06/17 03:55:57;;;;;;;6.90;6.40;;;14.50;99.90;;;;;;4897823;29;20272;-81
2022/06/17 03:58:25;;;;;;;7.13;6.63;;;14.50;99.90;;;;;;4899581;29;20723;-80
2022/06/17 04:01:00;;;;;;;7.27;6.57;;;14.60;99.90;;;;;;4893660;29;20299;-81
2022/06/17 04:03:33;;;;;;;6.93;6.33;;;14.60;99.90;;;;;;4901479;29;20215;-81
2022/06/17 04:06:07;;;;;;;7.87;7.17;;;14.60;99.90;;;;;;4899039;29;20231;-80
2022/06/17 04:08:51;;;;;;;7.53;6.93;;;14.70;99.90;;;;;;4900168;29;20630;-81
2022/06/17 04:11:20;;;;;;;6.67;6.17;;;14.80;99.90;;;;;;4907570;29;20225;-81
2022/06/17 04:13:47;;;;;;;6.67;6.07;;;14.90;99.90;;;;;;4892017;29;20209;-80
2022/06/17 04:16:20;;;;;;;7.33;6.77;;;15.00;99.90;;;;;;4903076;29;20253;-81
2022/06/17 04:18:47;;;;;;;7.17;6.57;;;15.00;99.90;;;;;;4896972;29;20224;-81
2022/06/17 04:21:14;;;;;;;6.73;6.23;;;15.10;99.90;;;;;;4915508;29;20548;-82
2022/06/17 04:23:42;;;;;;;5.90;5.40;;;15.20;99.90;;;;;;4900013;29;20231;-81
2022/06/17 04:26:19;;;;;;;6.27;5.70;;;15.20;99.90;;;;;;4892318;29;20204;-80
2022/06/17 04:28:52;;;;;;;6.37;5.60;;;15.30;99.90;;;;;;4900176;29;20338;-81
2022/06/17 04:31:25;;;;;;;5.80;5.30;;;15.30;99.90;;;;;;4894913;29;20225;-81
2022/06/17 04:34:04;;;;;;;5.73;5.00;;;15.50;99.90;;;;;;4897709;29;20227;-81
2022/06/17 04:36:35;;;;;;;5.83;5.33;;;15.60;99.90;;;;;;4896516;29;20293;-81
2022/06/17 04:39:11;;;;;;;5.93;5.40;;;15.70;99.90;;;;;;4898589;29;20237;-81
2022/06/17 04:41:44;;;;;;;5.63;5.10;;;15.80;99.90;;;;;;4896207;29;20678;-81
2022/06/17 04:44:16;;;;;;;6.23;5.73;;;15.90;99.90;;;;;;4892894;29;20233;-81
2022/06/17 04:46:48;;;;;;;6.30;5.70;;;16.00;99.90;;;;;;4902240;29;20214;-82
2022/06/17 04:49:29;;;;;;;6.30;5.70;;;16.10;99.90;;;;;;4903741;29;20207;-81
2022/06/17 04:52:00;;;;;;;7.37;6.77;;;16.30;99.90;;;;;;4896073;29;20255;-81
2022/06/17 04:54:29;;;;;;;6.87;6.37;;;16.50;99.90;;;;;;4901000;29;20719;-81
2022/06/17 04:57:19;;;;;;;6.90;6.40;;;16.60;99.90;;;;;;4899650;29;20235;-81
2022/06/17 04:59:50;;;;;;;4.47;3.13;;;16.80;99.90;;;;;;4900442;29;20214;-82
2022/06/17 05:02:21;;;;;;;5.90;5.43;;;17.00;99.90;;;;;;4892733;29;20259;-81
2022/06/17 05:05:20;;;;;;;4.63;4.23;;;17.10;99.90;;;;;;4908639;29;20218;-81
2022/06/17 05:07:52;;;;;;;6.30;5.90;;;17.20;99.90;;;;;;4903088;29;20198;-81
2022/06/17 05:10:24;;;;;;;6.60;6.10;;;17.40;99.90;;;;;;4892862;29;20239;-81
2022/06/17 05:12:57;;;;;;;5.87;5.30;;;17.50;99.90;;;;;;4894497;29;20226;-81
2022/06/17 05:15:25;;;;;;;6.07;5.67;;;17.50;99.90;;;;;;4892657;29;20322;-81
2022/06/17 05:17:54;;;;;;;6.20;5.70;;;17.50;99.90;;;;;;4898615;29;20230;-82
2022/06/17 05:20:23;;;;;;;6.07;5.57;;;17.60;99.90;;;;;;4895713;29;20220;-81
2022/06/17 05:22:55;;;;;;;6.70;6.20;;;17.90;99.90;;;;;;4893562;29;20210;-81
2022/06/17 05:25:25;;;;;;;5.23;4.70;;;18.00;99.90;;;;;;4898628;29;20714;-79
2022/06/17 05:27:53;;;;;;;4.93;4.63;;;18.10;99.90;;;;;;4897577;29;20203;-80
2022/06/17 05:30:20;;;;;;;5.20;4.80;;;18.20;99.90;;;;;;4897666;29;20237;-80
2022/06/17 05:32:50;;;;;;;5.40;5.00;;;18.20;99.90;;;;;;4897515;29;20732;-78
2022/06/17 05:35:20;;;;;;;5.30;4.90;;;18.40;99.90;;;;;;4899553;29;20233;-80
2022/06/17 05:37:47;;;;;;;6.07;5.57;;;18.70;99.90;;;;;;4902961;29;20223;-81
2022/06/17 05:40:15;;;;;;;5.30;4.80;;;19.20;99.90;;;;;;4889543;29;20203;-81
2022/06/17 05:42:45;;;;;;;5.33;4.93;;;19.90;99.90;;;;;;4901208;29;20306;-79
2022/06/17 05:45:16;;;;;;;5.30;4.90;;;20.70;99.90;;;;;;4891015;29;20605;-79
2022/06/17 05:47:54;;;;;;;5.33;4.90;;;21.40;99.90;;;;;;4896560;29;20242;-80
2022/06/17 05:50:27;;;;;;;6.07;5.67;;;22.20;99.90;;;;;;4898831;29;20681;-80
2022/06/17 05:53:14;;;;;;;5.20;4.90;;;22.60;99.90;;;;;;4908179;29;20214;-78
2022/06/17 05:55:47;;;;;;;5.23;4.87;;;23.00;99.90;;;;;;4898131;29;20341;-78
2022/06/17 05:58:14;;;;;;;5.10;4.70;;;23.60;99.90;;;;;;4894870;29;20596;-79
2022/06/17 06:00:41;;;;;;;3.63;3.30;;;23.80;99.90;;;;;;4896313;29;20677;-78
2022/06/17 06:03:18;;;;;;;4.30;3.43;;;23.90;99.90;;;;;;4915042;29;20192;-79
2022/06/17 06:05:45;;;;;;;5.90;5.40;;;24.10;99.90;;;;;;4895316;29;20753;-80
2022/06/17 06:08:15;;;;;;;5.20;4.80;;;24.30;99.90;;;;;;4898371;29;20184;-79
2022/06/17 06:10:45;;;;;;;5.13;4.80;;;24.60;99.90;;;;;;4895379;29;20209;-79
2022/06/17 06:13:16;;;;;;;5.10;4.70;;;24.80;99.40;;;;;;4898666;29;20631;-80
2022/06/17 06:15:49;;;;;;;2.90;2.60;;;25.10;99.00;;;;;;4897914;29;20228;-79
2022/06/17 06:18:36;;;;;;;4.33;2.83;;;25.20;97.80;;;;;;4910933;29;20227;-78
2022/06/17 06:21:23;;;;;;;3.27;2.77;;;25.40;96.40;;;;;;4908704;29;20215;-80
2022/06/17 06:23:51;;;;;;;9.30;5.70;;;25.20;97.30;;;;;;4888966;29;20208;-78
2022/06/17 06:26:36;;;;;;;5.60;5.20;;;25.30;96.60;;;;;;4904003;29;20231;-79
2022/06/17 06:29:21;;;;;;;5.80;5.30;;;25.20;96.70;;;;;;4900298;29;20286;-78
2022/06/17 06:31:49;;;;;;;5.70;5.23;;;25.30;96.90;;;;;;4915437;29;20204;-79
2022/06/17 06:34:30;;;;;;;3.77;3.47;;;25.60;96.80;;;;;;4901204;29;20241;-79
2022/06/17 06:36:57;;;;;;;5.87;5.47;;;25.50;95.70;;;;;;4895688;29;20219;-79
2022/06/17 06:39:24;;;;;;;6.40;5.90;;;25.70;96.00;;;;;;4898339;29;20252;-79
2022/06/17 06:41:56;;;;;;;5.90;5.40;;;25.90;96.10;;;;;;4899749;29;20211;-80
2022/06/17 06:44:23;;;;;;;5.57;5.10;;;26.20;95.10;;;;;;4904875;29;20223;-78
2022/06/17 06:47:07;;;;;;;3.43;3.13;;;26.40;94.40;;;;;;4895881;29;20202;-78
2022/06/17 06:49:48;;;;;;;2.83;2.53;;;26.70;94.50;;;;;;4902546;29;20207;-79
2022/06/17 06:52:16;;;;;;;4.83;2.63;;;26.40;95.00;;;;;;4893656;29;20215;-79
2022/06/17 06:54:43;;;;;;;3.73;3.30;;;26.00;94.30;;;;;;4901076;29;20231;-79
2022/06/17 06:57:11;;;;;;;4.67;4.27;;;25.50;95.30;;;;;;4909298;29;20196;-78
2022/06/17 06:59:41;;;;;;;5.77;4.50;;;25.80;95.50;;;;;;4890131;29;20215;-79
2022/06/17 07:02:09;;;;;;;5.30;4.90;;;25.90;94.70;;;;;;4901022;29;20200;-79
2022/06/17 07:04:36;;;;;;;5.63;5.13;;;26.40;94.00;;;;;;4903792;29;20228;-78
2022/06/17 07:07:05;;;;;;;4.87;4.47;;;26.80;93.20;;;;;;4899297;29;20204;-79
2022/06/17 07:09:31;;;;;;;5.60;5.10;;;26.50;94.40;;;;;;4895066;29;20197;-79
2022/06/17 07:11:58;;;;;;;5.20;4.80;;;26.70;93.80;;;;;;4920977;29;20688;-79
2022/06/17 07:14:25;;;;;;;5.40;5.00;;;26.60;94.40;;;;;;4900549;29;20656;-80
2022/06/17 07:16:52;;;;;;;5.97;5.30;;;27.00;93.80;;;;;;4900340;29;20208;-81
2022/06/17 07:19:19;;;;;;;6.00;4.87;;;27.10;93.50;;;;;;4900667;29;20232;-80
2022/06/17 07:21:48;;;;;;;5.13;4.73;;;27.30;93.60;;;;;;4898668;29;20223;-80
2022/06/17 07:24:16;;;;;;;5.73;5.20;;;27.30;93.80;;;;;;4907886;29;20307;-80
2022/06/17 07:26:43;;;;;;;4.77;4.37;;;27.30;93.60;;;;;;4900118;29;20209;-80
2022/06/17 07:29:10;;;;;;;5.57;4.93;;;27.20;93.20;;;;;;4893713;29;20288;-80
2022/06/17 07:31:37;;;;;;;5.20;4.80;;;27.40;93.20;;;;;;4915580;29;20204;-80
2022/06/17 07:34:04;;;;;;;5.10;4.70;;;27.40;94.10;;;;;;4916384;29;20228;-80
2022/06/17 07:42:02;;;;;;;5.37;4.97;;;28.30;91.50;;;;;;4917113;29;20211;-80
2022/06/17 07:44:30;;;;;;;5.97;5.20;;;27.70;93.10;;;;;;4916840;29;20227;-80
2022/06/17 07:46:57;;;;;;;5.57;5.07;;;27.80;92.60;;;;;;4899846;29;20208;-82
2022/06/17 07:49:23;;;;;;;5.03;4.60;;;27.80;92.40;;;;;;4899764;29;20587;-81
2022/06/17 07:51:50;;;;;;;5.30;4.80;;;27.80;91.30;;;;;;4914791;29;20203;-79
2022/06/17 07:54:18;;;;;;;4.80;4.50;;;27.60;92.70;;;;;;4900594;29;20235;-80
2022/06/17 07:56:46;;;;;;;6.57;5.97;;;27.60;93.40;;;;;;4889853;29;20215;-79
2022/06/17 07:59:13;;;;;;;6.77;6.27;;;28.00;91.50;;;;;;4915661;29;20306;-79
2022/06/17 08:01:40;;;;;;;5.67;5.17;;;28.00;91.80;;;;;;4916767;29;20200;-79
2022/06/17 08:04:07;;;;;;;5.53;5.03;;;28.10;91.80;;;;;;4916322;29;20220;-80
2022/06/17 08:06:34;;;;;;;5.07;4.67;;;28.00;91.80;;;;;;4915341;29;20204;-80
2022/06/17 08:09:00;;;;;;;5.53;5.00;;;28.10;92.10;;;;;;4899554;29;20203;-79
2022/06/17 08:11:29;;;;;;;7.73;5.20;;;28.10;91.60;;;;;;4916707;29;20200;-79
2022/06/17 08:13:55;;;;;;;4.87;4.33;;;28.00;90.80;;;;;;4911583;29;20206;-79
2022/06/17 08:16:22;;;;;;;5.17;4.67;;;27.30;92.90;;;;;;4916240;29;20216;-79
2022/06/17 08:18:49;;;;;;;4.87;4.40;;;27.40;91.40;;;;;;4901550;29;20220;-79
2022/06/17 08:21:16;;;;;;;4.63;4.20;;;27.60;91.80;;;;;;4915943;29;20203;-80
2022/06/17 08:23:43;;;;;;;5.23;4.77;;;27.80;91.20;;;;;;4916268;29;20204;-79
2022/06/17 08:26:10;;;;;;;5.33;4.83;;;27.70;90.40;;;;;;4916444;29;20268;-78
2022/06/17 08:28:38;;;;;;;5.07;4.43;;;27.60;91.90;;;;;;4917330;29;20662;-80
2022/06/17 08:31:05;;;;;;;5.37;4.90;;;28.00;91.60;;;;;;4904791;29;20264;-80
2022/06/17 08:33:32;;;;;;;5.27;4.80;;;28.00;92.00;;;;;;4915930;29;20204;-78
2022/06/17 08:36:04;;;;;;;6.00;5.03;;;28.20;92.20;;;;;;4897102;29;20223;-80
2022/06/17 08:38:34;;;;;;;4.97;4.50;;;28.30;90.60;;;;;;4898223;29;20303;-79
2022/06/17 08:41:09;;;;;;;5.03;4.63;;;28.00;92.10;;;;;;4899188;29;20204;-79
2022/06/17 08:43:58;;;;;;;4.93;4.53;;;28.30;92.30;;;;;;4914057;29;20251;-80
2022/06/17 08:46:38;;;;;;;6.73;4.63;;;28.50;90.50;;;;;;4905738;29;20205;-80
2022/06/17 08:49:21;;;;;;;5.60;5.10;;;28.70;91.50;;;;;;4909011;29;20207;-79
2022/06/17 08:52:04;;;;;;;5.97;5.53;;;28.80;90.20;;;;;;4914995;29;20620;-78
2022/06/17 08:54:45;;;;;;;5.60;5.20;;;29.00;90.80;;;;;;4908219;29;20216;-80
2022/06/17 08:57:19;;;;;;;5.20;4.80;;;28.70;90.70;;;;;;4911676;29;20200;-79
2022/06/17 09:00:05;;;;;;;5.87;5.37;;;29.10;90.50;;;;;;4898492;29;20211;-79
2022/06/17 09:02:44;;;;;;;5.80;5.20;;;29.10;87.90;;;;;;4913685;29;20279;-80
2022/06/17 09:05:34;;;;;;;4.67;4.27;;;29.10;90.90;;;;;;4908644;29;20224;-80
2022/06/17 09:08:17;;;;;;;5.57;4.67;;;29.20;87.90;;;;;;4897722;29;20264;-78
2022/06/17 09:10:53;;;;;;;5.80;4.60;;;29.30;90.10;;;;;;4896279;29;20228;-79
2022/06/17 09:13:31;;;;;;;5.53;5.03;;;29.50;90.10;;;;;;4909116;29;20623;-80
2022/06/17 09:16:08;;;;;;;5.80;5.30;;;29.50;91.80;;;;;;4898700;29;20594;-78
2022/06/17 09:18:38;;;;;;;5.30;4.90;;;29.50;90.30;;;;;;4898537;29;20222;-80
2022/06/17 09:21:08;;;;;;;6.50;4.97;;;29.60;88.90;;;;;;4915373;29;20628;-79
2022/06/17 09:23:39;;;;;;;5.30;4.67;;;29.20;89.70;;;;;;4915792;29;20620;-79
2022/06/17 09:26:12;;;;;;;5.30;4.90;;;29.40;88.40;;;;;;4915550;29;20279;-78
2022/06/17 09:28:43;;;;;;;4.90;4.50;;;29.60;90.30;;;;;;4895567;29;20270;-79
2022/06/17 09:31:17;;;;;;;5.57;5.07;;;29.70;90.20;;;;;;4897738;29;20255;-79
2022/06/17 09:33:50;;;;;;;6.90;6.20;;;30.00;89.90;;;;;;4915375;29;20267;-79
2022/06/17 09:36:22;;;;;;;6.40;5.80;;;30.10;87.40;;;;;;4915107;29;20203;-80
2022/06/17 09:38:56;;;;;;;5.47;5.00;;;30.10;86.50;;;;;;4896313;29;20220;-80
2022/06/17 09:41:29;;;;;;;5.20;4.80;;;30.00;87.10;;;;;;4901223;29;20211;-81
2022/06/17 09:44:00;;;;;;;5.60;5.10;;;30.20;88.50;;;;;;4895987;29;20213;-79
2022/06/17 09:46:35;;;;;;;6.17;5.50;;;30.20;86.50;;;;;;4907018;29;20209;-79
2022/06/17 09:49:08;;;;;;;5.13;4.73;;;30.30;86.80;;;;;;4898493;29;20279;-80
2022/06/17 09:51:43;;;;;;;5.60;5.10;;;30.30;87.30;;;;;;4898466;29;20208;-80
2022/06/17 09:54:16;;;;;;;5.90;5.27;;;30.20;81.80;;;;;;4890877;29;20259;-80
2022/06/17 09:56:48;;;;;;;5.90;5.40;;;30.40;84.20;;;;;;4892953;29;20670;-80
2022/06/17 09:59:20;;;;;;;6.10;5.50;;;30.40;84.90;;;;;;4904695;29;20217;-80
2022/06/17 10:01:48;;;;;;;5.83;5.43;;;30.40;85.10;;;;;;4915946;29;20208;-81
2022/06/17 10:04:17;;;;;;;6.30;5.33;;;30.60;84.70;;;;;;4919179;29;20223;-81
2022/06/17 10:06:53;;;;;;;5.43;5.03;;;30.60;82.80;;;;;;4920542;29;20204;-82
2022/06/17 10:09:41;;;;;;;5.60;5.20;;;30.50;86.30;;;;;;4919638;29;20204;-81
2022/06/17 10:12:16;;;;;;;5.50;5.10;;;30.30;86.70;;;;;;4919128;29;20200;-80
2022/06/17 10:14:55;;;;;;;5.70;5.30;;;30.60;87.70;;;;;;4918884;29;20219;-79
2022/06/17 10:20:34;;;;;;;5.90;5.30;;;30.20;82.70;;;;;;4912505;29;20228;-81
2022/06/17 10:23:10;;;;;;;5.70;5.20;;;29.90;84.40;;;;;;4915956;29;20757;-79
2022/06/17 10:25:47;;;;;;;5.80;5.30;;;29.80;86.70;;;;;;4899848;29;20223;-80
2022/06/17 10:28:45;;;;;;;5.77;5.30;;;29.60;83.40;;;;;;4900859;29;20748;-81
2022/06/17 10:31:21;;;;;;;5.83;5.43;;;29.10;83.80;;;;;;4910294;29;20685;-79
2022/06/17 10:33:50;;;;;;;5.63;5.23;;;29.30;86.10;;;;;;4915912;29;20196;-79
2022/06/17 10:36:18;;;;;;;5.83;5.40;;;29.30;82.80;;;;;;4918088;29;20272;-79
2022/06/17 10:38:47;;;;;;;5.73;5.33;;;29.10;83.00;;;;;;4917902;29;20196;-79
2022/06/17 10:41:17;;;;;;;5.60;5.20;;;29.10;83.30;;;;;;4893224;29;20675;-80
2022/06/17 10:43:47;;;;;;;5.30;5.00;;;29.40;85.80;;;;;;4899078;29;20275;-80
2022/06/17 10:46:18;;;;;;;5.30;5.00;;;29.50;83.90;;;;;;4911343;29;20238;-79
2022/06/17 10:48:50;;;;;;;5.37;4.97;;;29.30;83.90;;;;;;4918050;29;20876;-79
2022/06/17 10:51:19;;;;;;;5.70;5.10;;;29.30;85.50;;;;;;4898473;29;20640;-80
2022/06/17 10:53:48;;;;;;;5.33;4.93;;;29.00;82.30;;;;;;4916377;29;20279;-79
2022/06/17 10:56:20;;;;;;;5.20;4.80;;;28.80;83.00;;;;;;4918324;29;20252;-80
2022/06/17 10:59:02;;;;;;;4.97;4.73;;;28.80;85.20;;;;;;4893262;29;20296;-79
2022/06/17 11:01:52;;;;;;;5.10;4.73;;;28.80;85.60;;;;;;4903883;29;20203;-80
2022/06/17 11:04:21;;;;;;;5.10;4.70;;;28.60;83.40;;;;;;4906297;29;20231;-80
2022/06/17 11:06:52;;;;;;;5.50;5.00;;;28.50;82.30;;;;;;4914845;29;20200;-79
2022/06/17 11:09:25;;;;;;;5.13;4.80;;;28.50;81.00;;;;;;4905985;29;20201;-80
2022/06/17 11:12:06;;;;;;;5.10;4.70;;;28.40;81.80;;;;;;4915656;29;20251;-80
2022/06/17 11:14:42;;;;;;;5.00;4.60;;;28.30;82.80;;;;;;4910712;29;20228;-80
2022/06/17 11:17:19;;;;;;;5.97;4.70;;;28.20;83.90;;;;;;4899654;29;20210;-80
2022/06/17 11:19:49;;;;;;;4.97;4.67;;;27.90;81.10;;;;;;4897968;29;20230;-80
2022/06/17 11:22:26;;;;;;;5.13;4.70;;;27.80;79.10;;;;;;4917545;29;20271;-80
2022/06/17 11:24:57;;;;;;;4.73;4.43;;;27.70;78.90;;;;;;4900350;29;20283;-80
2022/06/17 11:27:31;;;;;;;4.90;4.40;;;27.70;80.60;;;;;;4900656;29;20215;-80
2022/06/17 11:30:21;;;;;;;4.80;4.40;;;27.70;77.60;;;;;;4901027;29;20260;-80
2022/06/17 11:32:49;;;;;;;4.73;4.40;;;27.80;81.00;;;;;;4891504;29;20205;-79
2022/06/17 11:35:26;;;;;;;4.73;4.40;;;27.80;76.60;;;;;;4902454;29;20271;-79
2022/06/17 11:37:56;;;;;;;4.10;3.90;;;27.90;79.10;;;;;;4917298;29;20211;-80
2022/06/17 11:40:25;;;;;;;4.20;4.00;;;27.80;75.70;;;;;;4900509;29;20558;-80
2022/06/17 11:42:55;;;;;;;4.47;4.20;;;27.90;75.50;;;;;;4917116;29;20259;-79
2022/06/17 11:45:25;;;;;;;4.40;4.10;;;27.80;75.80;;;;;;4916936;29;20610;-80
2022/06/17 11:47:59;;;;;;;4.70;4.40;;;27.60;75.20;;;;;;4899208;29;20678;-79
2022/06/17 11:50:30;;;;;;;4.50;4.20;;;27.50;72.30;;;;;;4898834;29;20204;-79
2022/06/17 11:53:06;;;;;;;4.37;4.03;;;27.30;73.80;;;;;;4900035;29;20211;-80
2022/06/17 11:55:42;;;;;;;4.40;4.20;;;27.40;74.10;;;;;;4895000;29;20232;-80
2022/06/17 11:58:09;;;;;;;4.80;4.50;;;27.40;74.50;;;;;;4911326;29;20212;-79
2022/06/17 12:00:45;;;;;;;4.40;4.10;;;27.50;76.80;;;;;;4904885;29;20231;-79
2022/06/17 12:03:13;;;;;;;4.70;4.40;;;27.50;76.20;;;;;;4888859;29;20204;-79
2022/06/17 12:05:41;;;;;;;4.60;4.30;;;27.30;73.90;;;;;;4916426;29;20369;-80
2022/06/17 12:08:16;;;;;;;5.27;4.40;;;27.30;77.00;;;;;;4900121;29;20200;-80
2022/06/17 12:10:49;;;;;;;4.13;3.90;;;27.20;78.50;;;;;;4888435;29;20694;-79
2022/06/17 12:13:25;;;;;;;4.70;4.40;;;27.20;77.10;;;;;;4886046;29;20223;-79
2022/06/17 12:15:56;;;;;;;4.20;4.00;;;27.10;77.60;;;;;;4913658;29;20261;-79
2022/06/17 12:18:27;;;;;;;4.40;4.10;;;27.20;79.00;;;;;;4913329;29;20263;-79
2022/06/17 12:21:12;;;;;;;4.37;3.97;;;27.20;78.90;;;;;;4915431;29;20255;-80
2022/06/17 12:23:47;;;;;;;4.60;4.20;;;27.30;77.80;;;;;;4914763;29;20275;-81
2022/06/17 12:26:19;;;;;;;4.70;4.20;;;27.30;78.40;;;;;;4897516;29;20203;-80
2022/06/17 12:28:56;;;;;;;4.47;4.10;;;27.40;79.20;;;;;;4899162;29;20215;-80
2022/06/17 12:31:37;;;;;;;4.43;4.10;;;27.40;76.70;;;;;;4918713;29;20732;-79
2022/06/17 12:34:21;;;;;;;3.80;3.60;;;27.40;76.40;;;;;;4906962;29;20227;-80
2022/06/17 12:36:52;;;;;;;3.90;3.60;;;27.40;78.90;;;;;;4912072;29;20199;-79
2022/06/17 12:39:29;;;;;;;3.60;3.30;;;27.40;78.50;;;;;;4893837;29;20213;-80
2022/06/17 12:42:05;;;;;;;3.73;3.53;;;27.50;76.20;;;;;;4895700;29;20208;-80
2022/06/17 12:44:45;;;;;;;4.03;3.73;;;27.40;73.90;;;;;;4897672;29;20227;-80
2022/06/17 12:47:22;;;;;;;3.30;3.07;;;27.30;75.30;;;;;;4911738;29;20212;-80
2022/06/17 12:55:53;;;;;;;1.60;1.50;;;27.60;74.20;;;;;;4892509;29;20220;-80
2022/06/17 12:58:32;;;;;;;1.50;1.40;;;27.40;73.50;;;;;;4909996;29;20690;-80
2022/06/17 13:01:03;;;;;;;2.07;1.40;;;27.30;71.50;;;;;;4897494;29;20228;-80
2022/06/17 13:04:04;;;;;;;1.80;1.40;;;27.20;72.10;;;;;;4914008;29;20204;-80
2022/06/17 13:06:42;;;;;;;1.30;1.30;;;27.20;69.20;;;;;;4902623;29;20208;-79
2022/06/17 13:09:17;;;;;;;1.60;1.50;;;27.00;66.50;;;;;;4889892;29;20637;-80
2022/06/17 13:11:56;;;;;;;1.50;1.40;;;27.10;69.30;;;;;;4911708;29;20204;-80
2022/06/17 13:14:34;;;;;;;1.43;1.43;;;27.20;68.80;;;;;;4911430;29;20235;-81
2022/06/17 13:17:07;;;;;;;1.63;1.53;;;27.20;70.00;;;;;;4897092;29;20207;-79
2022/06/17 13:19:39;;;;;;;1.30;1.30;;;27.40;72.90;;;;;;4896069;29;20207;-79
2022/06/17 13:22:13;;;;;;;1.40;1.30;;;27.50;71.30;;;;;;4896789;29;20204;-80
2022/06/17 13:24:50;;;;;;;1.40;1.40;;;27.30;68.30;;;;;;4913963;29;20561;-80
2022/06/17 13:27:23;;;;;;;1.90;1.70;;;27.30;68.40;;;;;;4909341;29;20565;-80
2022/06/17 13:29:56;;;;;;;2.43;1.60;;;27.30;71.70;;;;;;4914533;29;20199;-81
2022/06/17 13:32:27;;;;;;;1.50;1.43;;;27.30;71.80;;;;;;4892918;29;20216;-79